East Des Moines, Iowa
Current Conditions -  °F | °C
As of 6:54 AM on Thursday 30 Oct 2014 (Local Time) from KDSM Reporting Station
Overcast Overcast  
Wind Chill: 40°   Ceiling: 8000
Heat Index: 44°   Visibility: 10mi
Dew Point: 36°   Wind: 7mph
Humidity: 73%   Direction: 80°E
Pressure: 30.06"   Gusts: NA
Location:  41.5836°N, 93.6292°W
Report Text: KDSM 301154Z 08006KT 10SM OVC080 07/02 A3006 RMK AO2 SLP182 T00670022 10072 20050 56001
Loading
Personal Weather Stations






























Interactive Weather Map
Tropical Storm Tracking
New forecast layout! Learn more

10-Day Weather Forecast

Advertisements
Track Severe Weather on mobile